createdAt,value
2016-04-25T00:00:15.934Z,1005.57
2016-04-25T00:01:16.016Z,1005.53
2016-04-25T00:02:16.033Z,1005.53
2016-04-25T00:03:16.020Z,1005.51
2016-04-25T00:04:16.085Z,1005.5
2016-04-25T00:05:16.058Z,1005.49
2016-04-25T00:06:16.154Z,1005.53
2016-04-25T00:07:16.171Z,1005.5
2016-04-25T00:08:16.315Z,1005.48
2016-04-25T00:09:16.176Z,1005.5
2016-04-25T00:10:16.211Z,1005.47
2016-04-25T00:11:16.246Z,1005.49
2016-04-25T00:12:16.248Z,1005.46
2016-04-25T00:13:16.281Z,1005.46
2016-04-25T00:14:16.315Z,1005.47
2016-04-25T00:15:16.334Z,1005.45
2016-04-25T00:16:16.415Z,1005.46
2016-04-25T00:17:16.387Z,1005.45
2016-04-25T00:18:16.420Z,1005.44
2016-04-25T00:19:16.453Z,1005.43
2016-04-25T00:20:16.519Z,1005.43
2016-04-25T00:21:16.507Z,1005.39
2016-04-25T00:22:16.992Z,1005.41
2016-04-25T00:23:16.595Z,1005.39
2016-04-25T00:24:16.739Z,1005.37
2016-04-25T00:25:16.601Z,1005.35
2016-04-25T00:26:16.728Z,1005.34
2016-04-25T00:27:17.043Z,1005.38
2016-04-25T00:28:16.687Z,1005.36
2016-04-25T00:29:16.783Z,1005.36
2016-04-25T00:30:16.802Z,1005.33
2016-04-25T00:31:16.773Z,1005.34
2016-04-25T00:32:16.792Z,1005.32
2016-04-25T00:33:16.889Z,1005.33
2016-04-25T00:34:16.891Z,1005.32
2016-04-25T00:35:16.940Z,1005.31
2016-04-25T00:36:16.896Z,1005.29
2016-04-25T00:37:16.978Z,1005.32
2016-04-25T00:38:17.011Z,1005.31
2016-04-25T00:39:16.983Z,1005.31
2016-04-25T00:40:17.000Z,1005.34
2016-04-25T00:41:17.066Z,1005.32
2016-04-25T00:42:17.052Z,1005.31
2016-04-25T00:43:17.134Z,1005.28
2016-04-25T00:44:17.168Z,1005.3
2016-04-25T00:45:17.139Z,1005.28
2016-04-25T00:46:17.188Z,1005.27
2016-04-25T00:47:17.255Z,1005.27
2016-04-25T00:48:17.413Z,1005.26
2016-04-25T00:49:17.307Z,1005.25
2016-04-25T00:50:17.309Z,1005.21
2016-04-25T00:51:17.374Z,1005.24
2016-04-25T00:52:17.360Z,1005.23
2016-04-25T00:53:17.364Z,1005.23
2016-04-25T00:54:17.398Z,1005.23
2016-04-25T00:55:17.463Z,1005.24
2016-04-25T00:56:17.434Z,1005.21
2016-04-25T00:57:17.469Z,1005.21
2016-04-25T00:58:17.565Z,1005.19
2016-04-25T00:59:17.521Z,1005.14
2016-04-25T01:00:17.539Z,1005.13
2016-04-25T01:01:17.572Z,1005.17
2016-04-25T01:02:17.606Z,1005.13
2016-04-25T01:03:17.688Z,1005.16
2016-04-25T01:04:17.706Z,1005.11
2016-04-25T01:05:17.725Z,1005.11
2016-04-25T01:06:17.695Z,1005.11
2016-04-25T01:07:17.730Z,1005.15
2016-04-25T01:08:17.811Z,1005.11
2016-04-25T01:09:17.829Z,1005.13
2016-04-25T01:10:17.800Z,1005.1
2016-04-25T01:11:17.990Z,1005.11
2016-04-25T01:12:17.914Z,1005.14
2016-04-25T01:13:17.902Z,1005.14
2016-04-25T01:14:17.967Z,1005.2
2016-04-25T01:15:17.985Z,1005.17
2016-04-25T01:16:17.972Z,1005.18
2016-04-25T01:17:17.991Z,1005.19
2016-04-25T01:18:18.025Z,1005.17
2016-04-25T01:19:18.090Z,1005.17
2016-04-25T01:20:18.077Z,1005.18
2016-04-25T01:21:18.157Z,1005.19
2016-04-25T01:22:18.130Z,1005.17
2016-04-25T01:23:18.148Z,1005.16
2016-04-25T01:24:18.228Z,1005.21
2016-04-25T01:25:18.199Z,1005.15
2016-04-25T01:26:18.281Z,1005.12
2016-04-25T01:27:18.471Z,1005.18
2016-04-25T01:28:18.427Z,1005.14
2016-04-25T01:29:18.320Z,1005.14
2016-04-25T01:30:18.385Z,1005.16
2016-04-25T01:31:18.373Z,1005.16
2016-04-25T01:32:18.390Z,1005.17
2016-04-25T01:33:18.471Z,1005.16
2016-04-25T01:34:18.443Z,1005.14
2016-04-25T01:35:18.523Z,1005.14
2016-04-25T01:36:18.558Z,1005.1
2016-04-25T01:37:18.529Z,1005.13
2016-04-25T01:38:18.547Z,1005.07
2016-04-25T01:39:18.566Z,1005.06
2016-04-25T01:40:18.600Z,1005.08
2016-04-25T01:41:18.634Z,1005.1
2016-04-25T01:42:18.808Z,1005.07
2016-04-25T01:43:18.747Z,1005.08
2016-04-25T01:44:18.782Z,1005.07
2016-04-25T01:45:18.800Z,1005.09
2016-04-25T01:46:18.756Z,1005.09
2016-04-25T01:47:18.838Z,1005.1
2016-04-25T01:48:18.840Z,1005.08
2016-04-25T01:49:18.905Z,1005.09
2016-04-25T01:50:18.939Z,1005.07
2016-04-25T01:51:18.957Z,1005.08
2016-04-25T01:52:18.913Z,1005.04
2016-04-25T01:53:18.947Z,1005.03
2016-04-25T01:54:18.966Z,1005.04
2016-04-25T01:55:19.046Z,1005.04
2016-04-25T01:56:19.080Z,1005.04
2016-04-25T01:57:19.098Z,1005.02
2016-04-25T01:58:19.070Z,1004.98
2016-04-25T01:59:19.166Z,1004.97
2016-04-25T02:00:19.122Z,1005.01
2016-04-25T02:01:19.204Z,1005
2016-04-25T02:02:19.315Z,1004.96
2016-04-25T02:03:19.349Z,1004.96
2016-04-25T02:04:19.273Z,1004.95
2016-04-25T02:05:19.386Z,1004.97
2016-04-25T02:06:19.326Z,1004.96
2016-04-25T02:07:19.423Z,1004.95
2016-04-25T02:08:19.409Z,1004.94
2016-04-25T02:09:19.412Z,1004.96
2016-04-25T02:10:19.430Z,1004.95
2016-04-25T02:11:19.418Z,1004.93
2016-04-25T02:12:19.873Z,1004.93
2016-04-25T02:13:19.469Z,1004.92
2016-04-25T02:14:19.488Z,1004.9
2016-04-25T02:15:19.584Z,1004.88
2016-04-25T02:16:19.603Z,1004.88
2016-04-25T02:17:19.574Z,1004.89
2016-04-25T02:18:19.592Z,1004.88
2016-04-25T02:19:19.610Z,1004.89
2016-04-25T02:20:19.707Z,1004.86
2016-04-25T02:21:19.726Z,1004.88
2016-04-25T02:22:19.760Z,1004.86
2016-04-25T02:23:19.777Z,1004.86
2016-04-25T02:24:19.812Z,1004.82
2016-04-25T02:25:19.845Z,1004.82
2016-04-25T02:26:19.802Z,1004.83
2016-04-25T02:27:19.836Z,1004.78
2016-04-25T02:28:20.572Z,1004.78
2016-04-25T02:29:19.888Z,1004.79
2016-04-25T02:30:19.968Z,1004.81
2016-04-25T02:31:19.956Z,1004.79
2016-04-25T02:32:19.959Z,1004.79
2016-04-25T02:33:20.008Z,1004.75
2016-04-25T02:34:20.011Z,1004.77
2016-04-25T02:35:20.092Z,1004.77
2016-04-25T02:36:20.062Z,1004.79
2016-04-25T02:37:20.159Z,1004.76
2016-04-25T02:38:20.177Z,1004.79
2016-04-25T02:39:20.195Z,1004.77
2016-04-25T02:40:20.231Z,1004.75
2016-04-25T02:41:20.264Z,1004.72
2016-04-25T02:42:20.267Z,1004.73
2016-04-25T02:43:20.425Z,1004.72
2016-04-25T02:44:20.334Z,1004.74
2016-04-25T02:45:20.353Z,1004.73
2016-04-25T02:46:20.387Z,1004.71
2016-04-25T02:47:20.374Z,1004.7
2016-04-25T02:48:20.486Z,1004.66
2016-04-25T02:49:20.411Z,1004.63
2016-04-25T02:50:20.491Z,1004.64
2016-04-25T02:51:20.463Z,1004.61
2016-04-25T02:52:20.513Z,1004.59
2016-04-25T02:53:20.515Z,1004.57
2016-04-25T02:54:20.549Z,1004.57
2016-04-25T02:55:20.645Z,1004.55
2016-04-25T02:56:20.586Z,1004.61
2016-04-25T02:57:20.619Z,1004.55
2016-04-25T02:58:20.638Z,1004.54
2016-04-25T02:59:20.719Z,1004.56
2016-04-25T03:00:20.752Z,1004.58
2016-04-25T03:01:20.771Z,1004.58
2016-04-25T03:02:20.742Z,1004.55
2016-04-25T03:03:20.824Z,1004.55
2016-04-25T03:04:20.795Z,1004.5
2016-04-25T03:05:20.953Z,1004.51
2016-04-25T03:06:20.863Z,1004.46
2016-04-25T03:07:20.881Z,1004.5
2016-04-25T03:08:20.898Z,1004.48
2016-04-25T03:09:20.933Z,1004.48
2016-04-25T03:10:20.951Z,1004.52
2016-04-25T03:11:21.032Z,1004.51
2016-04-25T03:12:21.050Z,1004.49
2016-04-25T03:13:21.100Z,1004.46
2016-04-25T03:14:21.103Z,1004.47
2016-04-25T03:15:21.136Z,1004.49
2016-04-25T03:16:21.108Z,1004.47
2016-04-25T03:17:21.205Z,1004.46
2016-04-25T03:18:21.207Z,1004.48
2016-04-25T03:19:21.179Z,1004.49
2016-04-25T03:20:21.275Z,1004.5
2016-04-25T03:21:21.324Z,1004.51
2016-04-25T03:22:21.343Z,1004.48
2016-04-25T03:23:21.424Z,1004.48
2016-04-25T03:24:21.379Z,1004.48
2016-04-25T03:25:21.444Z,1004.47
2016-04-25T03:26:21.416Z,1004.44
2016-04-25T03:27:21.544Z,1004.43
2016-04-25T03:28:21.421Z,1004.46
2016-04-25T03:29:21.502Z,1004.44
2016-04-25T03:30:21.473Z,1004.41
2016-04-25T03:31:21.554Z,1004.42
2016-04-25T03:32:21.527Z,1004.46
2016-04-25T03:33:21.606Z,1004.45
2016-04-25T03:34:21.626Z,1004.42
2016-04-25T03:35:21.643Z,1004.4
2016-04-25T03:36:21.677Z,1004.42
2016-04-25T03:37:21.696Z,1004.45
2016-04-25T03:38:21.729Z,1004.4
2016-04-25T03:39:21.764Z,1004.42
2016-04-25T03:40:21.750Z,1004.37
2016-04-25T03:41:21.815Z,1004.4
2016-04-25T03:42:21.834Z,1004.41
2016-04-25T03:43:22.243Z,1004.36
2016-04-25T03:44:21.823Z,1004.36
2016-04-25T03:45:21.920Z,1004.36
2016-04-25T03:46:21.876Z,1004.35
2016-04-25T03:47:21.911Z,1004.32
2016-04-25T03:48:21.991Z,1004.31
2016-04-25T03:49:22.025Z,1004.29
2016-04-25T03:50:22.044Z,1004.26
2016-04-25T03:51:22.014Z,1004.28
2016-04-25T03:52:22.033Z,1004.27
2016-04-25T03:53:22.130Z,1004.25
2016-04-25T03:54:22.163Z,1004.25
2016-04-25T03:55:22.166Z,1004.23
2016-04-25T03:56:22.138Z,1004.2
2016-04-25T03:57:22.219Z,1004.16
2016-04-25T03:58:22.502Z,1004.16
2016-04-25T03:59:22.223Z,1004.18
2016-04-25T04:00:22.304Z,1004.18
2016-04-25T04:01:22.324Z,1004.17
2016-04-25T04:02:22.341Z,1004.17
2016-04-25T04:03:22.390Z,1004.14
2016-04-25T04:04:22.409Z,1004.14
2016-04-25T04:05:22.427Z,1004.15
2016-04-25T04:06:22.446Z,1004.15
2016-04-25T04:07:22.495Z,1004.12
2016-04-25T04:08:22.513Z,1004.16
2016-04-25T04:09:22.532Z,1004.18
2016-04-25T04:10:22.566Z,1004.16
2016-04-25T04:11:22.584Z,1004.2
2016-04-25T04:12:22.617Z,1004.19
2016-04-25T04:13:22.636Z,1004.17
2016-04-25T04:14:22.671Z,1004.2
2016-04-25T04:15:22.642Z,1004.21
2016-04-25T04:16:22.723Z,1004.17
2016-04-25T04:17:22.803Z,1004.18
2016-04-25T04:18:22.837Z,1004.19
2016-04-25T04:19:22.778Z,1004.16
2016-04-25T04:20:22.811Z,1004.17
2016-04-25T04:21:23.284Z,1004.16
2016-04-25T04:22:22.817Z,1004.17
2016-04-25T04:23:22.851Z,1004.13
2016-04-25T04:24:22.931Z,1004.16
2016-04-25T04:25:22.981Z,1004.13
2016-04-25T04:26:22.968Z,1004.16
2016-04-25T04:27:22.940Z,1004.14
2016-04-25T04:28:23.052Z,1004.14
2016-04-25T04:29:23.039Z,1004.1
2016-04-25T04:30:23.088Z,1004.1
2016-04-25T04:31:23.107Z,1004.19
2016-04-25T04:32:23.077Z,1004.09
2016-04-25T04:33:23.253Z,1004.1
2016-04-25T04:34:23.130Z,1004.12
2016-04-25T04:35:23.149Z,1004.14
2016-04-25T04:36:23.245Z,1004.16
2016-04-25T04:37:23.263Z,1004.1
2016-04-25T04:38:23.235Z,1004.12
2016-04-25T04:39:23.315Z,1004.15
2016-04-25T04:40:23.381Z,1004.14
2016-04-25T04:41:23.477Z,1004.18
2016-04-25T04:42:23.418Z,1004.16
2016-04-25T04:43:24.373Z,1004.14
2016-04-25T04:44:23.532Z,1004.15
2016-04-25T04:45:23.519Z,1004.12
2016-04-25T04:46:23.460Z,1004.2
2016-04-25T04:47:23.525Z,1004.14
2016-04-25T04:48:23.543Z,1004.17
2016-04-25T04:49:23.577Z,1004.14
2016-04-25T04:50:23.548Z,1004.18
2016-04-25T04:51:23.645Z,1004.18
2016-04-25T04:52:23.617Z,1004.14
2016-04-25T04:53:23.681Z,1004.15
2016-04-25T04:54:23.716Z,1004.12
2016-04-25T04:55:23.749Z,1004.13
2016-04-25T04:56:23.767Z,1004.14
2016-04-25T04:57:23.786Z,1004.1
2016-04-25T04:58:23.804Z,1004.11
2016-04-25T04:59:23.854Z,1004.09
2016-04-25T05:00:23.872Z,1004.06
2016-04-25T05:01:23.891Z,1004.07
2016-04-25T05:02:23.924Z,1004.06
2016-04-25T05:03:23.943Z,1004.11
2016-04-25T05:04:23.977Z,1004.08
2016-04-25T05:05:23.980Z,1004.07
2016-04-25T05:06:24.013Z,1004.09
2016-04-25T05:07:24.047Z,1004.08
2016-04-25T05:08:24.065Z,1004.02
2016-04-25T05:09:24.099Z,1004.03
2016-04-25T05:10:24.118Z,1004.02
2016-04-25T05:11:24.168Z,1004.02
2016-04-25T05:12:24.206Z,1004.02
2016-04-25T05:13:24.549Z,1003.99
2016-04-25T05:14:24.300Z,1004
2016-04-25T05:15:24.440Z,1003.97
2016-04-25T05:16:24.487Z,1003.98
2016-04-25T05:17:24.542Z,1003.98
2016-04-25T05:18:24.592Z,1003.97
2016-04-25T05:19:24.641Z,1003.98
2016-04-25T05:20:24.770Z,1003.97
2016-04-25T05:21:24.710Z,1003.94
2016-04-25T05:22:24.751Z,1003.92
2016-04-25T05:23:24.729Z,1003.96
2016-04-25T05:24:24.816Z,1003.9
2016-04-25T05:25:24.855Z,1003.89
2016-04-25T05:26:24.925Z,1003.89
2016-04-25T05:27:25.040Z,1003.86
2016-04-25T05:28:24.951Z,1003.89
2016-04-25T05:29:24.955Z,1003.87
2016-04-25T05:30:24.977Z,1003.9
2016-04-25T05:31:25.012Z,1003.85
2016-04-25T05:32:24.999Z,1003.91
2016-04-25T05:33:25.175Z,1003.93
2016-04-25T05:34:25.116Z,1003.92
2016-04-25T05:35:25.073Z,1003.93
2016-04-25T05:36:25.091Z,1003.89
2016-04-25T05:37:25.189Z,1003.93
2016-04-25T05:38:25.207Z,1003.92
2016-04-25T05:39:25.242Z,1003.95
2016-04-25T05:40:25.261Z,1003.89
2016-04-25T05:41:25.295Z,1003.93
2016-04-25T05:42:25.406Z,1003.94
2016-04-25T05:43:25.426Z,1003.88
2016-04-25T05:44:25.365Z,1003.92
2016-04-25T05:45:25.336Z,1003.92
2016-04-25T05:46:25.417Z,1003.91
2016-04-25T05:47:25.405Z,1003.92
2016-04-25T05:48:25.548Z,1003.88
2016-04-25T05:49:25.442Z,1003.88
2016-04-25T05:50:25.522Z,1003.89
2016-04-25T05:51:25.555Z,1003.87
2016-04-25T05:52:25.528Z,1003.86
2016-04-25T05:53:25.608Z,1003.84
2016-04-25T05:54:25.626Z,1003.84
2016-04-25T05:55:25.677Z,1003.84
2016-04-25T05:56:25.679Z,1003.82
2016-04-25T05:57:25.791Z,1003.81
2016-04-25T05:58:25.794Z,1003.8
2016-04-25T05:59:25.874Z,1003.83
2016-04-25T06:00:25.862Z,1003.81
2016-04-25T06:01:25.926Z,1003.78
2016-04-25T06:02:25.961Z,1003.78
2016-04-25T06:03:25.932Z,1003.82
2016-04-25T06:04:26.012Z,1003.81
2016-04-25T06:05:25.954Z,1003.78
2016-04-25T06:06:25.956Z,1003.81
2016-04-25T06:07:25.990Z,1003.81
2016-04-25T06:08:26.009Z,1003.76
2016-04-25T06:09:26.042Z,1003.76
2016-04-25T06:10:26.076Z,1003.71
2016-04-25T06:11:26.109Z,1003.72
2016-04-25T06:12:26.144Z,1003.69
2016-04-25T06:13:26.318Z,1003.72
2016-04-25T06:14:26.384Z,1003.66
2016-04-25T06:15:26.198Z,1003.67
2016-04-25T06:16:26.233Z,1003.65
2016-04-25T06:17:26.267Z,1003.62
2016-04-25T06:18:26.285Z,1003.58
2016-04-25T06:19:26.350Z,1003.62
2016-04-25T06:20:26.353Z,1003.6
2016-04-25T06:21:26.371Z,1003.58
2016-04-25T06:22:26.406Z,1003.61
2016-04-25T06:23:26.378Z,1003.59
2016-04-25T06:24:26.473Z,1003.58
2016-04-25T06:25:26.476Z,1003.63
2016-04-25T06:26:26.479Z,1003.59
2016-04-25T06:27:26.482Z,1003.63
2016-04-25T06:28:26.563Z,1003.62
2016-04-25T06:29:26.597Z,1003.66
2016-04-25T06:30:26.631Z,1003.7
2016-04-25T06:31:26.649Z,1003.66
2016-04-25T06:32:26.667Z,1003.62
2016-04-25T06:33:26.811Z,1003.65
2016-04-25T06:34:26.688Z,1003.59
2016-04-25T06:35:26.754Z,1003.52
2016-04-25T06:36:26.725Z,1003.57
2016-04-25T06:37:26.805Z,1003.6
2016-04-25T06:38:26.841Z,1003.54
2016-04-25T06:39:26.873Z,1003.49
2016-04-25T06:40:26.892Z,1003.5
2016-04-25T06:41:26.941Z,1003.5
2016-04-25T06:42:26.960Z,1003.47
2016-04-25T06:43:26.978Z,1003.43
2016-04-25T06:44:27.013Z,1003.43
2016-04-25T06:45:27.030Z,1003.43
2016-04-25T06:46:27.018Z,1003.4
2016-04-25T06:47:27.035Z,1003.44
2016-04-25T06:48:27.118Z,1003.38
2016-04-25T06:49:27.150Z,1003.41
2016-04-25T06:50:27.185Z,1003.43
2016-04-25T06:51:27.328Z,1003.4
2016-04-25T06:52:27.237Z,1003.4
2016-04-25T06:53:27.286Z,1003.4
2016-04-25T06:54:27.290Z,1003.38
2016-04-25T06:55:27.417Z,1003.36
2016-04-25T06:56:27.357Z,1003.29
2016-04-25T06:57:27.391Z,1003.32
2016-04-25T06:58:27.456Z,1003.33
2016-04-25T06:59:27.584Z,1003.24
2016-04-25T07:00:27.556Z,1003.29
2016-04-25T07:01:27.433Z,1003.25
2016-04-25T07:02:27.513Z,1003.22
2016-04-25T07:03:27.547Z,1003.26
2016-04-25T07:04:27.566Z,1003.21
2016-04-25T07:05:27.600Z,1003.17
2016-04-25T07:06:27.634Z,1003.18
2016-04-25T07:07:27.652Z,1003.13
2016-04-25T07:08:27.624Z,1003.16
2016-04-25T07:09:27.705Z,1003.15
2016-04-25T07:10:27.754Z,1003.11
2016-04-25T07:11:27.819Z,1003.11
2016-04-25T07:12:29.213Z,1003.11
2016-04-25T07:13:27.934Z,1003.11
2016-04-25T07:14:27.905Z,1003.07
2016-04-25T07:15:27.877Z,1003.05
2016-04-25T07:16:28.020Z,1002.99
2016-04-25T07:17:29.695Z,1002.99
2016-04-25T07:18:27.963Z,1002.99
2016-04-25T07:19:27.997Z,1002.95
2016-04-25T07:20:28.062Z,1002.94
2016-04-25T07:21:28.159Z,1002.93
2016-04-25T07:22:28.083Z,1002.9
2016-04-25T07:23:28.226Z,1002.94
2016-04-25T07:24:28.089Z,1002.88
2016-04-25T07:25:28.185Z,1002.86
2016-04-25T07:26:28.203Z,1002.92
2016-04-25T07:27:30.018Z,1002.94
2016-04-25T07:28:28.209Z,1002.91
2016-04-25T07:29:28.289Z,1002.92
2016-04-25T07:30:28.308Z,1002.94
2016-04-25T07:31:28.451Z,1002.93
2016-04-25T07:32:28.376Z,1002.97
2016-04-25T07:33:28.409Z,1002.87
2016-04-25T07:34:28.522Z,1002.99
2016-04-25T07:35:28.400Z,1002.86
2016-04-25T07:36:28.480Z,1002.85
2016-04-25T07:37:30.624Z,1002.91
2016-04-25T07:38:28.547Z,1002.84
2016-04-25T07:39:28.598Z,1002.97
2016-04-25T07:40:28.600Z,1002.98
2016-04-25T07:41:28.744Z,1002.9
2016-04-25T07:42:30.637Z,1002.94
2016-04-25T07:43:28.686Z,1002.87
2016-04-25T07:44:28.735Z,1002.88
2016-04-25T07:45:28.755Z,1002.9
2016-04-25T07:46:28.804Z,1002.87
2016-04-25T07:47:28.822Z,1002.88
2016-04-25T07:48:28.856Z,1002.82
2016-04-25T07:49:28.984Z,1002.77
2016-04-25T07:50:28.971Z,1002.73
2016-04-25T07:51:28.989Z,1002.74
2016-04-25T07:52:31.227Z,1002.73
2016-04-25T07:53:28.963Z,1002.73
2016-04-25T07:54:29.060Z,1002.71
2016-04-25T07:55:29.079Z,1002.72
2016-04-25T07:56:29.128Z,1002.72
2016-04-25T07:57:29.520Z,1002.71
2016-04-25T07:58:29.196Z,1002.66
2016-04-25T07:59:29.229Z,1002.61
2016-04-25T08:00:29.186Z,1002.61
2016-04-25T08:01:29.282Z,1002.6
2016-04-25T08:02:29.347Z,1002.66
2016-04-25T08:03:29.428Z,1002.57
2016-04-25T08:04:29.322Z,1002.62
2016-04-25T08:05:29.402Z,1002.61
2016-04-25T08:06:29.436Z,1002.56
2016-04-25T08:07:30.345Z,1002.63
2016-04-25T08:08:29.441Z,1002.58
2016-04-25T08:09:29.538Z,1002.52
2016-04-25T08:10:29.697Z,1002.47
2016-04-25T08:11:29.544Z,1002.48
2016-04-25T08:12:29.961Z,1002.4
2016-04-25T08:13:30.183Z,1002.43
2016-04-25T08:14:29.701Z,1002.37
2016-04-25T08:15:29.688Z,1002.32
2016-04-25T08:16:29.783Z,1002.44
2016-04-25T08:17:29.881Z,1002.36
2016-04-25T08:18:29.789Z,1002.36
2016-04-25T08:19:30.074Z,1002.32
2016-04-25T08:20:29.966Z,1002.32
2016-04-25T08:21:30.000Z,1002.33
2016-04-25T08:22:29.989Z,1002.31
2016-04-25T08:23:29.945Z,1002.27
2016-04-25T08:24:30.056Z,1002.23
2016-04-25T08:25:30.153Z,1002.15
2016-04-25T08:26:30.125Z,1002.2
2016-04-25T08:27:30.142Z,1002.19
2016-04-25T08:28:30.208Z,1002.16
2016-04-25T08:29:30.351Z,1002.14
2016-04-25T08:30:30.261Z,1002.09
2016-04-25T08:31:30.294Z,1002.17
2016-04-25T08:32:30.422Z,1002.03
2016-04-25T08:33:30.346Z,1002.16
2016-04-25T08:34:30.397Z,1001.98
2016-04-25T08:35:30.414Z,1002.06
2016-04-25T08:36:30.449Z,1002.14
2016-04-25T08:37:30.560Z,1002.08
2016-04-25T08:38:30.594Z,1002.06
2016-04-25T08:39:30.550Z,1001.99
2016-04-25T08:40:30.584Z,1002.11
2016-04-25T08:41:30.623Z,1002.03
2016-04-25T08:42:30.641Z,1002.03
2016-04-25T08:43:30.768Z,1001.93
2016-04-25T08:44:30.710Z,1002
2016-04-25T08:45:30.727Z,1001.89
2016-04-25T08:46:30.777Z,1001.92
2016-04-25T08:47:30.811Z,1001.85
2016-04-25T08:48:30.860Z,1001.85
2016-04-25T08:49:30.879Z,1001.79
2016-04-25T08:50:30.850Z,1001.82
2016-04-25T08:51:30.962Z,1001.8
2016-04-25T08:52:31.012Z,1001.77
2016-04-25T08:53:31.030Z,1001.76
2016-04-25T08:54:31.048Z,1001.7
2016-04-25T08:55:31.098Z,1001.73
2016-04-25T08:56:31.116Z,1001.74
2016-04-25T08:57:31.150Z,1001.72
2016-04-25T08:58:31.903Z,1001.72
2016-04-25T08:59:31.219Z,1001.68
2016-04-25T09:00:31.252Z,1001.66
2016-04-25T09:01:31.302Z,1001.64
2016-04-25T09:02:31.319Z,1001.73
2016-04-25T09:03:31.432Z,1001.69
2016-04-25T09:04:31.419Z,1001.66
2016-04-25T09:05:31.438Z,1001.63
2016-04-25T09:06:31.455Z,1001.6
2016-04-25T09:07:31.505Z,1001.71
2016-04-25T09:08:31.524Z,1001.69
2016-04-25T09:09:31.558Z,1001.69
2016-04-25T09:10:31.607Z,1001.65
2016-04-25T09:11:31.626Z,1001.68
2016-04-25T09:12:31.753Z,1001.67
2016-04-25T09:13:31.709Z,1001.65
2016-04-25T09:14:31.680Z,1001.66
2016-04-25T09:15:31.745Z,1001.77
2016-04-25T09:16:31.783Z,1001.64
2016-04-25T09:17:31.755Z,1001.65
2016-04-25T09:18:31.899Z,1001.66
2016-04-25T09:19:32.010Z,1001.66
2016-04-25T09:20:31.935Z,1001.59
2016-04-25T09:21:32.000Z,1001.52
2016-04-25T09:22:32.035Z,1001.55
2016-04-25T09:23:32.115Z,1001.53
2016-04-25T09:24:32.055Z,1001.49
2016-04-25T09:25:32.073Z,1001.5
2016-04-25T09:26:32.107Z,1001.54
2016-04-25T09:27:32.094Z,1001.44
2016-04-25T09:28:32.176Z,1001.37
2016-04-25T09:29:32.224Z,1001.45
2016-04-25T09:30:32.243Z,1001.42
2016-04-25T09:31:32.276Z,1001.47
2016-04-25T09:32:32.312Z,1001.37
2016-04-25T09:33:32.360Z,1001.37
2016-04-25T09:34:32.331Z,1001.36
2016-04-25T09:35:32.397Z,1001.28
2016-04-25T09:36:32.447Z,1001.28
2016-04-25T09:37:32.465Z,1001.26
2016-04-25T09:38:32.498Z,1001.25
2016-04-25T09:39:32.533Z,1001.23
2016-04-25T09:40:32.583Z,1001.24
2016-04-25T09:41:32.600Z,1001.16
2016-04-25T09:43:32.684Z,1001.18
2016-04-25T09:44:32.843Z,1001.13
2016-04-25T09:45:32.736Z,1001.23
2016-04-25T09:46:32.770Z,1001.17
2016-04-25T09:47:32.820Z,1001.15
2016-04-25T09:48:32.838Z,1001.19
2016-04-25T09:49:32.888Z,1001.21
2016-04-25T09:50:33.016Z,1001.23
2016-04-25T09:51:33.080Z,1001.17
2016-04-25T09:52:32.974Z,1001.15
2016-04-25T09:53:33.054Z,1001.14
2016-04-25T09:54:33.041Z,1001.14
2016-04-25T09:55:33.123Z,1001.12
2016-04-25T09:56:33.094Z,1001.14
2016-04-25T09:57:33.143Z,1001.13
2016-04-25T09:58:33.240Z,1001.06
2016-04-25T09:59:33.274Z,1001.05
2016-04-25T10:00:33.230Z,1000.99
2016-04-25T10:01:33.279Z,1000.99
2016-04-25T10:02:33.313Z,1000.98
2016-04-25T10:03:33.362Z,1001
2016-04-25T10:04:33.490Z,1001.01
2016-04-25T10:05:33.415Z,1000.91
2016-04-25T10:06:33.449Z,1000.96
2016-04-25T10:07:33.592Z,1000.85
2016-04-25T10:08:33.517Z,1000.81
2016-04-25T10:09:33.551Z,1000.81
2016-04-25T10:10:33.601Z,1000.81
2016-04-25T10:11:33.634Z,1000.77
2016-04-25T10:12:33.683Z,1000.8
2016-04-25T10:13:33.765Z,1000.79
2016-04-25T10:14:34.409Z,1000.78
2016-04-25T10:15:33.770Z,1000.69
2016-04-25T10:16:33.820Z,1000.73
2016-04-25T10:17:33.853Z,1000.75
2016-04-25T10:18:33.919Z,1000.64
2016-04-25T10:19:33.969Z,1000.58
2016-04-25T10:20:34.112Z,1000.6
2016-04-25T10:21:34.036Z,1000.53
2016-04-25T10:22:34.070Z,1000.51
2016-04-25T10:23:34.198Z,1000.51
2016-04-25T10:24:34.154Z,1000.49
2016-04-25T10:25:34.125Z,1000.56
2016-04-25T10:26:34.175Z,1000.44
2016-04-25T10:27:34.318Z,1000.57
2016-04-25T10:28:34.243Z,1000.57
2016-04-25T10:29:34.324Z,1000.53
2016-04-25T10:30:34.327Z,1000.52
2016-04-25T10:31:34.382Z,1000.42
2016-04-25T10:32:34.399Z,1000.37
2016-04-25T10:33:34.434Z,1000.32
2016-04-25T10:34:34.475Z,1000.36
2016-04-25T10:35:34.637Z,1000.36
2016-04-25T10:36:34.545Z,1000.45
2016-04-25T10:37:34.579Z,1000.4
2016-04-25T10:38:34.645Z,1000.35
2016-04-25T10:39:34.648Z,1000.39
2016-04-25T10:40:34.698Z,1000.37
2016-04-25T10:41:34.715Z,1000.31
2016-04-25T10:42:34.780Z,1000.38
2016-04-25T10:43:34.798Z,1000.35
2016-04-25T10:44:34.864Z,1000.23
2016-04-25T10:45:34.883Z,1000.21
2016-04-25T10:46:34.916Z,1000.25
2016-04-25T10:47:34.966Z,1000.23
2016-04-25T10:48:35.016Z,1000.19
2016-04-25T10:49:35.050Z,1000.18
2016-04-25T10:50:35.067Z,1000.08
2016-04-25T10:51:35.117Z,1000.12
2016-04-25T10:52:35.104Z,1000.1
2016-04-25T10:53:35.185Z,1000.1
2016-04-25T10:54:35.218Z,1000.13
2016-04-25T10:55:35.253Z,1000.09
2016-04-25T10:56:35.287Z,999.97
2016-04-25T10:57:35.383Z,1000.01
2016-04-25T10:58:35.370Z,1000.05
2016-04-25T10:59:35.436Z,1000.01
2016-04-25T11:00:35.454Z,999.98
2016-04-25T11:01:35.472Z,999.94
2016-04-25T11:02:35.506Z,999.95
2016-04-25T11:03:35.556Z,999.91
2016-04-25T11:04:35.605Z,999.9
2016-04-25T11:05:35.623Z,999.9
2016-04-25T11:18:04.344Z,999.71
2016-04-25T11:19:04.393Z,999.69
2016-04-25T11:20:04.411Z,999.66
2016-04-25T11:21:04.445Z,999.59
2016-04-25T11:22:04.480Z,999.6
2016-04-25T11:23:04.513Z,999.68
2016-04-25T11:24:04.547Z,999.63
2016-04-25T11:25:04.580Z,999.55
2016-04-25T11:26:04.615Z,999.58
2016-04-25T11:27:04.664Z,999.55
2016-04-25T11:28:04.683Z,999.55
2016-04-25T11:29:04.717Z,999.59
2016-04-25T11:30:04.751Z,999.61
2016-04-25T11:31:04.785Z,999.54
2016-04-25T11:32:04.819Z,999.51
2016-04-25T11:33:04.852Z,999.52
2016-04-25T11:34:04.887Z,999.47
2016-04-25T11:35:04.920Z,999.49
2016-04-25T11:36:04.954Z,999.49
2016-04-25T11:37:04.988Z,999.46
2016-04-25T11:38:05.022Z,999.51
2016-04-25T11:39:05.056Z,999.43
2016-04-25T11:40:05.090Z,999.44
2016-04-25T11:41:05.123Z,999.39
2016-04-25T11:42:05.158Z,999.43
2016-04-25T11:43:05.176Z,999.44
2016-04-25T11:44:05.209Z,999.41
2016-04-25T11:45:05.244Z,999.44
2016-04-25T11:46:05.294Z,999.37
2016-04-25T11:47:05.317Z,999.35
2016-04-25T11:48:05.350Z,999.32
2016-04-25T11:49:05.389Z,999.28
2016-04-25T11:50:05.408Z,999.3
2016-04-25T11:51:05.458Z,999.28
2016-04-25T11:52:05.476Z,999.31
2016-04-25T11:53:05.515Z,999.34
2016-04-25T11:54:05.548Z,999.29
2016-04-25T11:55:05.582Z,999.26
2016-04-25T11:56:05.616Z,999.29
2016-04-25T11:57:05.651Z,999.16
2016-04-25T11:58:05.685Z,999.19
2016-04-25T11:59:05.718Z,999.11
2016-04-25T12:00:05.752Z,999.18
2016-04-25T12:01:05.786Z,999.16
2016-04-25T12:02:05.820Z,999.08
2016-04-25T12:03:05.854Z,999.03
2016-04-25T12:04:05.888Z,999.12
2016-04-25T12:05:05.922Z,999.1
2016-04-25T12:06:05.956Z,999.05
2016-04-25T12:07:05.989Z,998.95
2016-04-25T12:08:06.023Z,998.97
2016-04-25T12:09:06.042Z,998.93
2016-04-25T12:10:06.076Z,998.93
2016-04-25T12:11:06.110Z,998.98
2016-04-25T12:12:06.144Z,999.01
2016-04-25T12:13:06.178Z,998.9
2016-04-25T12:14:06.211Z,998.97
2016-04-25T12:15:06.433Z,998.91
2016-04-25T12:16:06.294Z,998.87
2016-04-25T12:17:06.313Z,998.88
2016-04-25T12:18:06.347Z,998.82
2016-04-25T12:19:06.382Z,998.93
2016-04-25T12:20:06.416Z,998.88
2016-04-25T12:21:06.449Z,998.86
2016-04-25T12:22:06.483Z,998.86
2016-04-25T12:23:06.518Z,999.01